sensor_id;sensor_type;location;lat;lon;timestamp;P1;durP1;ratioP1;P2;durP2;ratioP2
3677;SDS011;1855;50.934;6.958;2024-01-30T00:01:06;11.60;;;10.50;;
3677;SDS011;1855;50.934;6.958;2024-01-30T00:03:33;12.65;;;11.45;;
3677;SDS011;1855;50.934;6.958;2024-01-30T00:05:59;11.98;;;10.77;;
3677;SDS011;1855;50.934;6.958;2024-01-30T00:08:27;12.30;;;11.10;;
3677;SDS011;1855;50.934;6.958;2024-01-30T00:10:54;11.63;;;10.52;;
3677;SDS011;1855;50.934;6.958;2024-01-30T00:13:21;11.80;;;10.73;;
3677;SDS011;1855;50.934;6.958;2024-01-30T00:15:48;12.20;;;11.10;;
3677;SDS011;1855;50.934;6.958;2024-01-30T00:18:14;12.35;;;11.25;;
3677;SDS011;1855;50.934;6.958;2024-01-30T00:20:41;11.60;;;10.50;;
3677;SDS011;1855;50.934;6.958;2024-01-30T00:23:08;12.45;;;11.15;;
3677;SDS011;1855;50.934;6.958;2024-01-30T00:25:36;12.13;;;10.93;;
3677;SDS011;1855;50.934;6.958;2024-01-30T00:28:03;11.65;;;10.65;;
3677;SDS011;1855;50.934;6.958;2024-01-30T00:30:30;12.88;;;11.50;;
3677;SDS011;1855;50.934;6.958;2024-01-30T00:32:57;11.75;;;10.65;;
3677;SDS011;1855;50.934;6.958;2024-01-30T00:35:24;12.65;;;11.35;;
3677;SDS011;1855;50.934;6.958;2024-01-30T00:37:51;12.27;;;11.07;;
3677;SDS011;1855;50.934;6.958;2024-01-30T00:40:17;11.80;;;10.70;;
3677;SDS011;1855;50.934;6.958;2024-01-30T00:42:46;12.68;;;11.48;;
3677;SDS011;1855;50.934;6.958;2024-01-30T00:45:13;12.80;;;11.40;;
3677;SDS011;1855;50.934;6.958;2024-01-30T00:47:40;12.10;;;10.90;;
3677;SDS011;1855;50.934;6.958;2024-01-30T00:50:07;11.70;;;10.70;;
3677;SDS011;1855;50.934;6.958;2024-01-30T00:52:34;11.57;;;10.48;;
3677;SDS011;1855;50.934;6.958;2024-01-30T00:55:01;11.90;;;10.90;;
3677;SDS011;1855;50.934;6.958;2024-01-30T00:57:28;11.82;;;10.63;;
3677;SDS011;1855;50.934;6.958;2024-01-30T00:59:56;13.00;;;11.60;;
3677;SDS011;1855;50.934;6.958;2024-01-30T01:02:23;12.40;;;11.20;;
3677;SDS011;1855;50.934;6.958;2024-01-30T01:04:50;12.55;;;11.35;;
3677;SDS011;1855;50.934;6.958;2024-01-30T01:07:16;11.85;;;10.75;;
3677;SDS011;1855;50.934;6.958;2024-01-30T01:09:42;11.77;;;10.77;;
3677;SDS011;1855;50.934;6.958;2024-01-30T01:12:09;11.60;;;10.40;;
3677;SDS011;1855;50.934;6.958;2024-01-30T01:14:36;13.30;;;12.20;;
3677;SDS011;1855;50.934;6.958;2024-01-30T01:17:04;12.82;;;11.43;;
3677;SDS011;1855;50.934;6.958;2024-01-30T01:19:31;12.63;;;11.35;;
3677;SDS011;1855;50.934;6.958;2024-01-30T01:21:57;12.32;;;11.23;;
3677;SDS011;1855;50.934;6.958;2024-01-30T01:24:24;12.77;;;11.47;;
3677;SDS011;1855;50.934;6.958;2024-01-30T01:26:51;11.85;;;10.65;;
3677;SDS011;1855;50.934;6.958;2024-01-30T01:29:18;12.30;;;11.10;;
3677;SDS011;1855;50.934;6.958;2024-01-30T01:31:45;12.23;;;11.13;;
3677;SDS011;1855;50.934;6.958;2024-01-30T01:34:13;12.30;;;11.10;;
3677;SDS011;1855;50.934;6.958;2024-01-30T01:36:40;11.93;;;10.73;;
3677;SDS011;1855;50.934;6.958;2024-01-30T01:39:07;12.93;;;11.73;;
3677;SDS011;1855;50.934;6.958;2024-01-30T01:41:34;12.23;;;10.93;;
3677;SDS011;1855;50.934;6.958;2024-01-30T01:44:01;12.38;;;11.18;;
3677;SDS011;1855;50.934;6.958;2024-01-30T01:46:29;11.30;;;10.20;;
3677;SDS011;1855;50.934;6.958;2024-01-30T01:48:58;12.30;;;11.00;;
3677;SDS011;1855;50.934;6.958;2024-01-30T01:51:30;12.90;;;11.70;;
3677;SDS011;1855;50.934;6.958;2024-01-30T01:54:00;11.25;;;10.25;;
3677;SDS011;1855;50.934;6.958;2024-01-30T01:56:29;12.20;;;10.90;;
3677;SDS011;1855;50.934;6.958;2024-01-30T01:58:59;12.25;;;10.88;;
3677;SDS011;1855;50.934;6.958;2024-01-30T02:01:26;11.60;;;10.32;;
3677;SDS011;1855;50.934;6.958;2024-01-30T02:03:55;12.52;;;11.32;;
3677;SDS011;1855;50.934;6.958;2024-01-30T02:06:22;11.63;;;10.52;;
3677;SDS011;1855;50.934;6.958;2024-01-30T02:08:50;11.80;;;10.70;;
3677;SDS011;1855;50.934;6.958;2024-01-30T02:11:17;10.73;;;9.80;;
3677;SDS011;1855;50.934;6.958;2024-01-30T02:13:44;11.48;;;10.30;;
3677;SDS011;1855;50.934;6.958;2024-01-30T02:16:11;11.05;;;10.05;;
3677;SDS011;1855;50.934;6.958;2024-01-30T02:18:38;11.37;;;10.37;;
3677;SDS011;1855;50.934;6.958;2024-01-30T02:21:09;11.25;;;10.18;;
3677;SDS011;1855;50.934;6.958;2024-01-30T02:23:36;11.20;;;10.20;;
3677;SDS011;1855;50.934;6.958;2024-01-30T02:26:03;11.03;;;9.80;;
3677;SDS011;1855;50.934;6.958;2024-01-30T02:28:30;11.68;;;10.48;;
3677;SDS011;1855;50.934;6.958;2024-01-30T02:30:57;10.95;;;9.95;;
3677;SDS011;1855;50.934;6.958;2024-01-30T02:33:24;11.25;;;10.15;;
3677;SDS011;1855;50.934;6.958;2024-01-30T02:35:50;11.55;;;10.35;;
3677;SDS011;1855;50.934;6.958;2024-01-30T02:38:18;11.68;;;10.48;;
3677;SDS011;1855;50.934;6.958;2024-01-30T02:40:45;11.57;;;10.40;;
3677;SDS011;1855;50.934;6.958;2024-01-30T02:43:12;10.43;;;9.43;;
3677;SDS011;1855;50.934;6.958;2024-01-30T02:45:38;11.00;;;9.90;;
3677;SDS011;1855;50.934;6.958;2024-01-30T02:48:05;10.70;;;9.60;;
3677;SDS011;1855;50.934;6.958;2024-01-30T02:50:32;10.60;;;9.60;;
3677;SDS011;1855;50.934;6.958;2024-01-30T02:52:59;10.80;;;9.70;;
3677;SDS011;1855;50.934;6.958;2024-01-30T02:55:27;10.50;;;9.50;;
3677;SDS011;1855;50.934;6.958;2024-01-30T02:57:54;10.43;;;9.43;;
3677;SDS011;1855;50.934;6.958;2024-01-30T03:00:21;11.98;;;9.90;;
3677;SDS011;1855;50.934;6.958;2024-01-30T03:02:48;10.00;;;9.07;;
3677;SDS011;1855;50.934;6.958;2024-01-30T03:05:14;10.05;;;9.25;;
3677;SDS011;1855;50.934;6.958;2024-01-30T03:07:41;10.30;;;9.40;;
3677;SDS011;1855;50.934;6.958;2024-01-30T03:10:08;11.63;;;10.63;;
3677;SDS011;1855;50.934;6.958;2024-01-30T03:12:36;11.13;;;10.13;;
3677;SDS011;1855;50.934;6.958;2024-01-30T03:15:03;10.10;;;9.10;;
3677;SDS011;1855;50.934;6.958;2024-01-30T03:17:30;10.90;;;9.88;;
3677;SDS011;1855;50.934;6.958;2024-01-30T03:19:57;11.23;;;10.13;;
3677;SDS011;1855;50.934;6.958;2024-01-30T03:22:24;11.35;;;10.35;;
3677;SDS011;1855;50.934;6.958;2024-01-30T03:24:50;10.85;;;9.85;;
3677;SDS011;1855;50.934;6.958;2024-01-30T03:27:17;10.50;;;9.60;;
3677;SDS011;1855;50.934;6.958;2024-01-30T03:29:45;11.00;;;9.90;;
3677;SDS011;1855;50.934;6.958;2024-01-30T03:32:12;11.25;;;10.15;;
3677;SDS011;1855;50.934;6.958;2024-01-30T03:34:39;11.43;;;10.23;;
3677;SDS011;1855;50.934;6.958;2024-01-30T03:37:06;11.32;;;10.23;;
3677;SDS011;1855;50.934;6.958;2024-01-30T03:39:32;11.23;;;10.23;;
3677;SDS011;1855;50.934;6.958;2024-01-30T03:41:59;11.27;;;10.17;;
3677;SDS011;1855;50.934;6.958;2024-01-30T03:44:26;11.35;;;10.25;;
3677;SDS011;1855;50.934;6.958;2024-01-30T03:46:54;10.82;;;9.75;;
3677;SDS011;1855;50.934;6.958;2024-01-30T03:49:21;10.70;;;9.60;;
3677;SDS011;1855;50.934;6.958;2024-01-30T03:51:47;10.50;;;9.60;;
3677;SDS011;1855;50.934;6.958;2024-01-30T03:54:14;11.05;;;10.02;;
3677;SDS011;1855;50.934;6.958;2024-01-30T03:56:41;10.35;;;9.45;;
3677;SDS011;1855;50.934;6.958;2024-01-30T03:59:08;10.90;;;9.80;;
3677;SDS011;1855;50.934;6.958;2024-01-30T04:01:35;11.15;;;10.15;;
3677;SDS011;1855;50.934;6.958;2024-01-30T04:04:03;10.65;;;9.65;;
3677;SDS011;1855;50.934;6.958;2024-01-30T04:06:30;11.30;;;10.20;;
3677;SDS011;1855;50.934;6.958;2024-01-30T04:08:56;11.40;;;10.30;;
3677;SDS011;1855;50.934;6.958;2024-01-30T04:11:23;11.40;;;10.30;;
3677;SDS011;1855;50.934;6.958;2024-01-30T04:13:50;11.23;;;10.13;;
3677;SDS011;1855;50.934;6.958;2024-01-30T04:16:20;10.80;;;9.80;;
3677;SDS011;1855;50.934;6.958;2024-01-30T04:18:47;10.80;;;9.80;;
3677;SDS011;1855;50.934;6.958;2024-01-30T04:21:15;11.30;;;10.30;;
3677;SDS011;1855;50.934;6.958;2024-01-30T04:23:42;10.98;;;9.88;;
3677;SDS011;1855;50.934;6.958;2024-01-30T04:26:08;10.68;;;9.57;;
3677;SDS011;1855;50.934;6.958;2024-01-30T04:28:35;11.30;;;10.20;;
3677;SDS011;1855;50.934;6.958;2024-01-30T04:31:02;10.90;;;9.90;;
3677;SDS011;1855;50.934;6.958;2024-01-30T04:33:29;10.88;;;9.88;;
3677;SDS011;1855;50.934;6.958;2024-01-30T04:35:56;11.90;;;10.70;;
3677;SDS011;1855;50.934;6.958;2024-01-30T04:38:24;10.77;;;9.68;;
3677;SDS011;1855;50.934;6.958;2024-01-30T04:40:51;11.57;;;10.45;;
3677;SDS011;1855;50.934;6.958;2024-01-30T04:43:18;10.87;;;9.87;;
3677;SDS011;1855;50.934;6.958;2024-01-30T04:45:45;10.75;;;9.65;;
3677;SDS011;1855;50.934;6.958;2024-01-30T04:48:11;11.85;;;10.63;;
3677;SDS011;1855;50.934;6.958;2024-01-30T04:50:38;11.20;;;10.20;;
3677;SDS011;1855;50.934;6.958;2024-01-30T04:53:05;11.52;;;10.32;;
3677;SDS011;1855;50.934;6.958;2024-01-30T04:55:34;11.00;;;9.90;;
3677;SDS011;1855;50.934;6.958;2024-01-30T04:58:01;11.93;;;10.82;;
3677;SDS011;1855;50.934;6.958;2024-01-30T05:00:28;12.10;;;10.90;;
3677;SDS011;1855;50.934;6.958;2024-01-30T05:02:55;11.93;;;10.73;;
3677;SDS011;1855;50.934;6.958;2024-01-30T05:05:22;11.57;;;10.47;;
3677;SDS011;1855;50.934;6.958;2024-01-30T05:07:48;11.60;;;10.50;;
3677;SDS011;1855;50.934;6.958;2024-01-30T05:10:15;11.77;;;10.68;;
3677;SDS011;1855;50.934;6.958;2024-01-30T05:12:43;11.70;;;10.80;;
3677;SDS011;1855;50.934;6.958;2024-01-30T05:15:10;11.10;;;10.00;;
3677;SDS011;1855;50.934;6.958;2024-01-30T05:17:37;11.85;;;10.70;;
3677;SDS011;1855;50.934;6.958;2024-01-30T05:20:04;11.00;;;9.90;;
3677;SDS011;1855;50.934;6.958;2024-01-30T05:22:32;11.80;;;10.23;;
3677;SDS011;1855;50.934;6.958;2024-01-30T05:24:59;11.80;;;10.70;;
3677;SDS011;1855;50.934;6.958;2024-01-30T05:27:25;11.80;;;10.70;;
3677;SDS011;1855;50.934;6.958;2024-01-30T05:29:54;11.75;;;10.75;;
3677;SDS011;1855;50.934;6.958;2024-01-30T05:32:20;12.30;;;11.00;;
3677;SDS011;1855;50.934;6.958;2024-01-30T05:34:47;11.93;;;10.82;;
3677;SDS011;1855;50.934;6.958;2024-01-30T05:37:15;11.52;;;10.52;;
3677;SDS011;1855;50.934;6.958;2024-01-30T05:39:42;12.33;;;11.13;;
3677;SDS011;1855;50.934;6.958;2024-01-30T05:42:09;11.95;;;10.75;;
3677;SDS011;1855;50.934;6.958;2024-01-30T05:44:36;11.20;;;10.10;;
3677;SDS011;1855;50.934;6.958;2024-01-30T05:47:04;11.70;;;10.60;;
3677;SDS011;1855;50.934;6.958;2024-01-30T05:49:31;11.70;;;10.70;;
3677;SDS011;1855;50.934;6.958;2024-01-30T05:51:58;10.90;;;9.80;;
3677;SDS011;1855;50.934;6.958;2024-01-30T05:54:25;10.73;;;9.38;;
3677;SDS011;1855;50.934;6.958;2024-01-30T05:56:51;12.73;;;11.13;;
3677;SDS011;1855;50.934;6.958;2024-01-30T05:59:17;12.52;;;10.10;;
3677;SDS011;1855;50.934;6.958;2024-01-30T06:01:45;11.25;;;9.82;;
3677;SDS011;1855;50.934;6.958;2024-01-30T06:04:14;11.30;;;10.20;;
3677;SDS011;1855;50.934;6.958;2024-01-30T06:06:40;11.25;;;10.15;;
3677;SDS011;1855;50.934;6.958;2024-01-30T06:09:07;11.27;;;10.13;;
3677;SDS011;1855;50.934;6.958;2024-01-30T06:11:34;11.68;;;10.57;;
3677;SDS011;1855;50.934;6.958;2024-01-30T06:14:01;12.35;;;11.05;;
3677;SDS011;1855;50.934;6.958;2024-01-30T06:16:28;12.10;;;10.90;;
3677;SDS011;1855;50.934;6.958;2024-01-30T06:18:55;11.23;;;10.02;;
3677;SDS011;1855;50.934;6.958;2024-01-30T06:21:23;11.47;;;10.47;;
3677;SDS011;1855;50.934;6.958;2024-01-30T06:23:50;11.02;;;10.02;;
3677;SDS011;1855;50.934;6.958;2024-01-30T06:26:17;11.05;;;10.05;;
3677;SDS011;1855;50.934;6.958;2024-01-30T06:28:43;11.77;;;10.67;;
3677;SDS011;1855;50.934;6.958;2024-01-30T06:31:10;11.32;;;10.32;;
3677;SDS011;1855;50.934;6.958;2024-01-30T06:33:37;11.20;;;10.10;;
3677;SDS011;1855;50.934;6.958;2024-01-30T06:36:04;11.73;;;10.63;;
3677;SDS011;1855;50.934;6.958;2024-01-30T06:38:32;11.18;;;10.15;;
3677;SDS011;1855;50.934;6.958;2024-01-30T06:40:59;11.98;;;10.88;;
3677;SDS011;1855;50.934;6.958;2024-01-30T06:43:25;12.75;;;11.55;;
3677;SDS011;1855;50.934;6.958;2024-01-30T06:45:52;12.10;;;10.90;;
3677;SDS011;1855;50.934;6.958;2024-01-30T06:48:19;13.02;;;11.27;;
3677;SDS011;1855;50.934;6.958;2024-01-30T06:50:45;11.93;;;10.82;;
3677;SDS011;1855;50.934;6.958;2024-01-30T06:53:13;11.80;;;10.80;;
3677;SDS011;1855;50.934;6.958;2024-01-30T06:55:41;12.40;;;11.20;;
3677;SDS011;1855;50.934;6.958;2024-01-30T06:58:07;11.05;;;9.95;;
3677;SDS011;1855;50.934;6.958;2024-01-30T07:00:34;11.30;;;10.20;;
3677;SDS011;1855;50.934;6.958;2024-01-30T07:03:01;10.10;;;9.20;;
3677;SDS011;1855;50.934;6.958;2024-01-30T07:05:28;11.77;;;10.70;;
3677;SDS011;1855;50.934;6.958;2024-01-30T07:07:54;11.43;;;10.30;;
3677;SDS011;1855;50.934;6.958;2024-01-30T07:10:21;11.68;;;10.60;;
3677;SDS011;1855;50.934;6.958;2024-01-30T07:12:49;11.93;;;10.77;;
3677;SDS011;1855;50.934;6.958;2024-01-30T07:15:16;10.98;;;9.98;;
3677;SDS011;1855;50.934;6.958;2024-01-30T07:17:45;11.53;;;10.27;;
3677;SDS011;1855;50.934;6.958;2024-01-30T07:20:12;11.10;;;10.10;;
3677;SDS011;1855;50.934;6.958;2024-01-30T07:22:39;10.65;;;9.75;;
3677;SDS011;1855;50.934;6.958;2024-01-30T07:25:06;11.20;;;10.10;;
3677;SDS011;1855;50.934;6.958;2024-01-30T07:27:34;11.93;;;10.45;;
3677;SDS011;1855;50.934;6.958;2024-01-30T07:30:02;12.48;;;10.90;;
3677;SDS011;1855;50.934;6.958;2024-01-30T07:32:29;10.50;;;9.40;;
3677;SDS011;1855;50.934;6.958;2024-01-30T07:34:56;10.90;;;9.90;;
3677;SDS011;1855;50.934;6.958;2024-01-30T07:37:23;10.37;;;9.27;;
3677;SDS011;1855;50.934;6.958;2024-01-30T07:39:50;10.95;;;9.95;;
3677;SDS011;1855;50.934;6.958;2024-01-30T07:42:17;10.85;;;9.75;;
3677;SDS011;1855;50.934;6.958;2024-01-30T07:44:43;11.43;;;10.32;;
3677;SDS011;1855;50.934;6.958;2024-01-30T07:47:11;11.25;;;10.15;;
3677;SDS011;1855;50.934;6.958;2024-01-30T07:49:38;10.97;;;9.83;;
3677;SDS011;1855;50.934;6.958;2024-01-30T07:52:05;10.88;;;9.88;;
3677;SDS011;1855;50.934;6.958;2024-01-30T07:54:32;10.32;;;9.20;;
3677;SDS011;1855;50.934;6.958;2024-01-30T07:56:59;12.20;;;10.48;;
3677;SDS011;1855;50.934;6.958;2024-01-30T07:59:27;11.00;;;9.90;;
3677;SDS011;1855;50.934;6.958;2024-01-30T08:01:53;11.23;;;10.13;;
3677;SDS011;1855;50.934;6.958;2024-01-30T08:04:21;10.38;;;9.23;;
3677;SDS011;1855;50.934;6.958;2024-01-30T08:06:48;10.43;;;9.40;;
3677;SDS011;1855;50.934;6.958;2024-01-30T08:09:15;10.23;;;9.23;;
3677;SDS011;1855;50.934;6.958;2024-01-30T08:11:41;10.65;;;9.65;;
3677;SDS011;1855;50.934;6.958;2024-01-30T08:14:08;11.07;;;9.98;;
3677;SDS011;1855;50.934;6.958;2024-01-30T08:16:35;10.83;;;9.73;;
3677;SDS011;1855;50.934;6.958;2024-01-30T08:19:02;10.18;;;9.27;;
3677;SDS011;1855;50.934;6.958;2024-01-30T08:21:30;10.63;;;9.50;;
3677;SDS011;1855;50.934;6.958;2024-01-30T08:24:01;11.02;;;9.98;;
3677;SDS011;1855;50.934;6.958;2024-01-30T08:26:29;10.95;;;9.85;;
3677;SDS011;1855;50.934;6.958;2024-01-30T08:28:56;12.68;;;10.43;;
3677;SDS011;1855;50.934;6.958;2024-01-30T08:31:22;10.70;;;9.70;;
3677;SDS011;1855;50.934;6.958;2024-01-30T08:33:49;9.93;;;9.03;;
3677;SDS011;1855;50.934;6.958;2024-01-30T08:36:16;9.82;;;8.80;;
3677;SDS011;1855;50.934;6.958;2024-01-30T08:38:45;10.10;;;9.10;;
3677;SDS011;1855;50.934;6.958;2024-01-30T08:41:12;10.68;;;9.57;;
3677;SDS011;1855;50.934;6.958;2024-01-30T08:43:38;10.50;;;9.50;;
3677;SDS011;1855;50.934;6.958;2024-01-30T08:46:05;10.38;;;9.38;;
3677;SDS011;1855;50.934;6.958;2024-01-30T08:48:32;10.57;;;9.57;;
3677;SDS011;1855;50.934;6.958;2024-01-30T08:50:59;10.85;;;9.75;;
3677;SDS011;1855;50.934;6.958;2024-01-30T08:53:25;11.55;;;10.45;;
3677;SDS011;1855;50.934;6.958;2024-01-30T08:55:53;12.07;;;10.07;;
3677;SDS011;1855;50.934;6.958;2024-01-30T08:58:20;10.63;;;9.63;;
3677;SDS011;1855;50.934;6.958;2024-01-30T09:00:47;11.20;;;10.20;;
3677;SDS011;1855;50.934;6.958;2024-01-30T09:03:14;10.90;;;9.90;;
3677;SDS011;1855;50.934;6.958;2024-01-30T09:05:40;10.90;;;9.80;;
3677;SDS011;1855;50.934;6.958;2024-01-30T09:08:07;11.43;;;10.00;;
3677;SDS011;1855;50.934;6.958;2024-01-30T09:10:34;11.82;;;9.80;;
3677;SDS011;1855;50.934;6.958;2024-01-30T09:13:02;10.10;;;9.10;;
3677;SDS011;1855;50.934;6.958;2024-01-30T09:15:29;11.20;;;9.68;;
3677;SDS011;1855;50.934;6.958;2024-01-30T09:17:56;11.25;;;10.10;;
3677;SDS011;1855;50.934;6.958;2024-01-30T09:20:22;10.90;;;9.80;;
3677;SDS011;1855;50.934;6.958;2024-01-30T09:22:49;10.32;;;9.27;;
3677;SDS011;1855;50.934;6.958;2024-01-30T09:25:16;10.63;;;9.63;;
3677;SDS011;1855;50.934;6.958;2024-01-30T09:27:43;10.50;;;9.60;;
3677;SDS011;1855;50.934;6.958;2024-01-30T09:30:12;10.30;;;9.40;;
3677;SDS011;1855;50.934;6.958;2024-01-30T09:32:39;10.17;;;9.17;;
3677;SDS011;1855;50.934;6.958;2024-01-30T09:35:06;13.60;;;10.13;;
3677;SDS011;1855;50.934;6.958;2024-01-30T09:37:33;11.13;;;9.90;;
3677;SDS011;1855;50.934;6.958;2024-01-30T09:40:00;9.50;;;8.60;;
3677;SDS011;1855;50.934;6.958;2024-01-30T09:42:28;10.70;;;9.70;;
3677;SDS011;1855;50.934;6.958;2024-01-30T09:44:59;10.30;;;9.20;;
3677;SDS011;1855;50.934;6.958;2024-01-30T09:47:29;10.40;;;9.30;;
3677;SDS011;1855;50.934;6.958;2024-01-30T09:49:57;9.93;;;9.02;;
3677;SDS011;1855;50.934;6.958;2024-01-30T09:52:25;10.20;;;9.20;;
3677;SDS011;1855;50.934;6.958;2024-01-30T09:54:52;10.80;;;9.60;;
3677;SDS011;1855;50.934;6.958;2024-01-30T09:57:19;10.35;;;9.30;;
3677;SDS011;1855;50.934;6.958;2024-01-30T09:59:47;10.15;;;8.95;;
3677;SDS011;1855;50.934;6.958;2024-01-30T10:02:13;9.82;;;8.60;;
3677;SDS011;1855;50.934;6.958;2024-01-30T10:04:42;9.80;;;8.80;;
3677;SDS011;1855;50.934;6.958;2024-01-30T10:07:09;10.50;;;9.50;;
3677;SDS011;1855;50.934;6.958;2024-01-30T10:09:37;10.50;;;8.93;;
3677;SDS011;1855;50.934;6.958;2024-01-30T10:12:05;9.73;;;8.75;;
3677;SDS011;1855;50.934;6.958;2024-01-30T10:14:32;9.10;;;8.30;;
3677;SDS011;1855;50.934;6.958;2024-01-30T10:17:00;10.48;;;8.77;;
3677;SDS011;1855;50.934;6.958;2024-01-30T10:19:27;12.07;;;9.02;;
3677;SDS011;1855;50.934;6.958;2024-01-30T10:21:55;10.82;;;9.10;;
3677;SDS011;1855;50.934;6.958;2024-01-30T10:24:23;10.60;;;9.60;;
3677;SDS011;1855;50.934;6.958;2024-01-30T10:26:50;11.57;;;8.88;;
3677;SDS011;1855;50.934;6.958;2024-01-30T10:29:16;9.77;;;8.88;;
3677;SDS011;1855;50.934;6.958;2024-01-30T10:31:43;9.75;;;8.85;;
3677;SDS011;1855;50.934;6.958;2024-01-30T10:34:10;9.73;;;8.73;;
3677;SDS011;1855;50.934;6.958;2024-01-30T10:36:39;10.70;;;9.70;;
3677;SDS011;1855;50.934;6.958;2024-01-30T10:39:08;11.23;;;10.20;;
3677;SDS011;1855;50.934;6.958;2024-01-30T10:41:37;10.48;;;9.48;;
3677;SDS011;1855;50.934;6.958;2024-01-30T10:44:08;11.70;;;10.60;;
3677;SDS011;1855;50.934;6.958;2024-01-30T10:46:37;12.30;;;11.10;;
3677;SDS011;1855;50.934;6.958;2024-01-30T10:49:05;11.38;;;10.18;;
3677;SDS011;1855;50.934;6.958;2024-01-30T10:51:32;9.60;;;8.80;;
3677;SDS011;1855;50.934;6.958;2024-01-30T10:54:00;9.63;;;8.65;;
3677;SDS011;1855;50.934;6.958;2024-01-30T10:56:29;9.70;;;8.70;;
3677;SDS011;1855;50.934;6.958;2024-01-30T10:58:59;10.32;;;9.38;;
3677;SDS011;1855;50.934;6.958;2024-01-30T11:01:26;10.00;;;9.00;;
3677;SDS011;1855;50.934;6.958;2024-01-30T11:03:55;10.17;;;9.17;;
3677;SDS011;1855;50.934;6.958;2024-01-30T11:06:22;10.00;;;9.00;;
3677;SDS011;1855;50.934;6.958;2024-01-30T11:09:00;10.02;;;9.02;;
3677;SDS011;1855;50.934;6.958;2024-01-30T11:11:30;9.50;;;8.50;;
3677;SDS011;1855;50.934;6.958;2024-01-30T11:14:00;9.70;;;8.80;;
3677;SDS011;1855;50.934;6.958;2024-01-30T11:16:30;9.15;;;8.25;;
3677;SDS011;1855;50.934;6.958;2024-01-30T11:18:59;9.30;;;8.43;;
3677;SDS011;1855;50.934;6.958;2024-01-30T11:21:27;8.45;;;7.65;;
3677;SDS011;1855;50.934;6.958;2024-01-30T11:23:54;9.55;;;8.55;;
3677;SDS011;1855;50.934;6.958;2024-01-30T11:26:23;8.60;;;7.80;;
3677;SDS011;1855;50.934;6.958;2024-01-30T11:28:55;8.77;;;7.97;;
3677;SDS011;1855;50.934;6.958;2024-01-30T11:31:21;8.02;;;7.22;;
3677;SDS011;1855;50.934;6.958;2024-01-30T11:33:48;8.40;;;7.60;;
3677;SDS011;1855;50.934;6.958;2024-01-30T11:36:19;9.00;;;8.10;;
3677;SDS011;1855;50.934;6.958;2024-01-30T11:38:51;9.13;;;8.10;;
3677;SDS011;1855;50.934;6.958;2024-01-30T11:41:17;9.20;;;8.30;;
3677;SDS011;1855;50.934;6.958;2024-01-30T11:43:50;8.65;;;7.95;;
3677;SDS011;1855;50.934;6.958;2024-01-30T11:46:19;9.68;;;7.85;;
3677;SDS011;1855;50.934;6.958;2024-01-30T11:48:46;9.90;;;8.00;;
3677;SDS011;1855;50.934;6.958;2024-01-30T11:51:13;8.52;;;7.55;;
3677;SDS011;1855;50.934;6.958;2024-01-30T11:53:40;8.25;;;7.45;;
3677;SDS011;1855;50.934;6.958;2024-01-30T11:56:07;8.88;;;7.57;;
3677;SDS011;1855;50.934;6.958;2024-01-30T11:58:34;8.85;;;7.95;;
3677;SDS011;1855;50.934;6.958;2024-01-30T12:01:01;8.20;;;7.40;;
3677;SDS011;1855;50.934;6.958;2024-01-30T12:03:29;8.80;;;7.40;;
3677;SDS011;1855;50.934;6.958;2024-01-30T12:05:56;8.00;;;7.20;;
3677;SDS011;1855;50.934;6.958;2024-01-30T12:08:23;8.33;;;7.40;;
3677;SDS011;1855;50.934;6.958;2024-01-30T12:10:55;8.77;;;7.40;;
3677;SDS011;1855;50.934;6.958;2024-01-30T12:13:22;8.43;;;7.63;;
3677;SDS011;1855;50.934;6.958;2024-01-30T12:15:50;8.10;;;7.40;;
3677;SDS011;1855;50.934;6.958;2024-01-30T12:18:18;8.48;;;7.60;;
3677;SDS011;1855;50.934;6.958;2024-01-30T12:20:47;8.40;;;7.70;;
3677;SDS011;1855;50.934;6.958;2024-01-30T12:23:23;8.15;;;7.30;;
3677;SDS011;1855;50.934;6.958;2024-01-30T12:25:50;8.57;;;7.30;;
3677;SDS011;1855;50.934;6.958;2024-01-30T12:28:17;7.90;;;7.20;;
3677;SDS011;1855;50.934;6.958;2024-01-30T12:30:45;7.70;;;7.00;;
3677;SDS011;1855;50.934;6.958;2024-01-30T12:33:15;7.50;;;6.80;;
3677;SDS011;1855;50.934;6.958;2024-01-30T12:35:46;8.30;;;7.20;;
3677;SDS011;1855;50.934;6.958;2024-01-30T12:38:13;7.90;;;7.20;;
3677;SDS011;1855;50.934;6.958;2024-01-30T12:40:40;8.13;;;7.32;;
3677;SDS011;1855;50.934;6.958;2024-01-30T12:43:07;8.52;;;7.72;;
3677;SDS011;1855;50.934;6.958;2024-01-30T12:45:33;8.52;;;7.72;;
3677;SDS011;1855;50.934;6.958;2024-01-30T12:48:01;8.80;;;8.10;;
3677;SDS011;1855;50.934;6.958;2024-01-30T12:50:28;8.47;;;7.63;;
3677;SDS011;1855;50.934;6.958;2024-01-30T12:52:57;8.20;;;7.03;;
3677;SDS011;1855;50.934;6.958;2024-01-30T12:55:24;8.00;;;7.10;;
3677;SDS011;1855;50.934;6.958;2024-01-30T12:57:53;8.32;;;6.90;;
3677;SDS011;1855;50.934;6.958;2024-01-30T13:00:20;8.27;;;6.90;;
3677;SDS011;1855;50.934;6.958;2024-01-30T13:02:47;9.55;;;7.60;;
3677;SDS011;1855;50.934;6.958;2024-01-30T13:05:14;7.78;;;7.07;;
3677;SDS011;1855;50.934;6.958;2024-01-30T13:07:41;10.85;;;8.70;;
3677;SDS011;1855;50.934;6.958;2024-01-30T13:10:09;7.80;;;6.80;;
3677;SDS011;1855;50.934;6.958;2024-01-30T13:12:36;8.85;;;6.90;;
3677;SDS011;1855;50.934;6.958;2024-01-30T13:15:03;7.93;;;7.07;;
3677;SDS011;1855;50.934;6.958;2024-01-30T13:17:31;9.40;;;7.70;;
3677;SDS011;1855;50.934;6.958;2024-01-30T13:19:58;7.50;;;6.80;;
3677;SDS011;1855;50.934;6.958;2024-01-30T13:22:24;7.90;;;7.10;;
3677;SDS011;1855;50.934;6.958;2024-01-30T13:24:51;8.82;;;7.60;;
3677;SDS011;1855;50.934;6.958;2024-01-30T13:27:19;11.85;;;7.50;;
3677;SDS011;1855;50.934;6.958;2024-01-30T13:29:47;8.90;;;6.90;;
3677;SDS011;1855;50.934;6.958;2024-01-30T13:32:13;8.57;;;7.25;;
3677;SDS011;1855;50.934;6.958;2024-01-30T13:34:40;9.18;;;7.20;;
3677;SDS011;1855;50.934;6.958;2024-01-30T13:37:08;8.50;;;6.87;;
3677;SDS011;1855;50.934;6.958;2024-01-30T13:39:35;8.90;;;7.35;;
3677;SDS011;1855;50.934;6.958;2024-01-30T13:42:01;9.10;;;6.70;;
3677;SDS011;1855;50.934;6.958;2024-01-30T13:44:30;7.97;;;5.60;;
3677;SDS011;1855;50.934;6.958;2024-01-30T13:46:57;8.30;;;5.80;;
3677;SDS011;1855;50.934;6.958;2024-01-30T13:49:24;7.33;;;5.50;;
3677;SDS011;1855;50.934;6.958;2024-01-30T13:51:50;9.77;;;5.90;;
3677;SDS011;1855;50.934;6.958;2024-01-30T13:54:17;9.75;;;5.65;;
3677;SDS011;1855;50.934;6.958;2024-01-30T13:56:44;6.60;;;4.80;;
3677;SDS011;1855;50.934;6.958;2024-01-30T13:59:10;7.10;;;5.05;;
3677;SDS011;1855;50.934;6.958;2024-01-30T14:01:38;7.68;;;5.57;;
3677;SDS011;1855;50.934;6.958;2024-01-30T14:04:05;6.87;;;5.37;;
3677;SDS011;1855;50.934;6.958;2024-01-30T14:06:32;7.80;;;5.70;;
3677;SDS011;1855;50.934;6.958;2024-01-30T14:08:59;6.15;;;5.03;;
3677;SDS011;1855;50.934;6.958;2024-01-30T14:11:25;6.68;;;5.72;;
3677;SDS011;1855;50.934;6.958;2024-01-30T14:13:52;8.25;;;4.90;;
3677;SDS011;1855;50.934;6.958;2024-01-30T14:16:19;8.25;;;5.32;;
3677;SDS011;1855;50.934;6.958;2024-01-30T14:18:47;7.32;;;5.15;;
3677;SDS011;1855;50.934;6.958;2024-01-30T14:21:14;5.97;;;4.88;;
3677;SDS011;1855;50.934;6.958;2024-01-30T14:23:41;7.85;;;4.88;;
3677;SDS011;1855;50.934;6.958;2024-01-30T14:26:07;6.43;;;4.95;;
3677;SDS011;1855;50.934;6.958;2024-01-30T14:28:34;5.83;;;5.10;;
3677;SDS011;1855;50.934;6.958;2024-01-30T14:31:01;8.40;;;5.80;;
3677;SDS011;1855;50.934;6.958;2024-01-30T14:33:28;7.35;;;5.82;;
3677;SDS011;1855;50.934;6.958;2024-01-30T14:35:56;5.68;;;5.07;;
3677;SDS011;1855;50.934;6.958;2024-01-30T14:38:23;7.53;;;5.63;;
3677;SDS011;1855;50.934;6.958;2024-01-30T14:40:51;6.20;;;5.60;;
3677;SDS011;1855;50.934;6.958;2024-01-30T14:43:17;6.60;;;5.70;;
3677;SDS011;1855;50.934;6.958;2024-01-30T14:45:44;8.10;;;5.70;;
3677;SDS011;1855;50.934;6.958;2024-01-30T14:48:14;7.40;;;6.07;;
3677;SDS011;1855;50.934;6.958;2024-01-30T14:50:41;6.47;;;5.80;;
3677;SDS011;1855;50.934;6.958;2024-01-30T14:53:09;6.80;;;5.75;;
3677;SDS011;1855;50.934;6.958;2024-01-30T14:55:36;6.25;;;5.65;;
3677;SDS011;1855;50.934;6.958;2024-01-30T14:58:02;7.13;;;6.18;;
3677;SDS011;1855;50.934;6.958;2024-01-30T15:00:29;6.95;;;5.35;;